• Join FlightAware (Why Join?)
  • Login
  • US Flag 
10:42PM EDT


 

Airport Tracker/Info


-or-


 

Live Flight TrackerFlight Track Log ✈ AWE1940 ✈ 09-May-2013 ✈ KCLT - KALB

Flight Track Log - Related Links

Times and Time Zones

All times are in EDT time to prevent confusion due to time zone crossing. See the AWE1940 flight status page for this flight to view local times or setup timezone preferences in your user account.

Time Position Orientation Groundspeed Altitude Reporting Facility
EDT Latitude Longitude Course Direction KTS MPH feet Rate Location/Type
10:25PM 35.1908 -80.9356 169° South 161 185 1,600  Level Atlanta Center
10:26PM 35.1447 -80.9247 169° South 206 237 3,200 2,340 Climbing Atlanta Center
10:27PM 35.1114 -80.8472 118° Southeast 260 299 6,100 2,400 Climbing Atlanta Center
10:28PM 35.1347 -80.7803 67° East 281 323 8,000 2,460 Climbing Atlanta Center
10:29PM 35.1883 -80.6842 56° Northeast 285 328 10,900 2,640 Climbing Atlanta Center
10:30PM 35.2214 -80.5989 65° Northeast 312 359 13,300 1,560 Climbing Atlanta Center
10:31PM 35.2689 -80.5028 59° Northeast 331 381 14,100 1,680 Climbing Atlanta Center
10:34PM 35.3942 -80.2319 60° Northeast 391 450 18,900 1,920 Climbing Washington Center
10:35PM 35.4408 -80.1044 66° East 397 457 20,600 1,680 Climbing Washington Center
10:36PM 35.4750 -79.9714 72° East 402 463 22,300 1,620 Climbing Washington Center
10:37PM 35.5133 -79.8306 71° East 415 478 23,900 1,320 Climbing Washington Center
10:38PM 35.5500 -79.6792 73° East 434 499 25,000 1,440 Climbing Washington Center
10:39PM 35.5906 -79.5256 72° East 465 535 26,800 1,800 Climbing Washington Center
10:40PM 35.6350 -79.3819 69° East 465 535 28,600 1,680 Climbing Washington Center
10:41PM 35.6892 -79.2467 64° Northeast 451 519 30,200 1,380 Climbing Washington Center
10:42PM 35.7433 -79.1108 64° Northeast 445 512 31,400 1,020 Climbing Washington Center
10:43PM 35.7975 -78.9750 64° Northeast 440 506 32,300 1,200 Climbing Washington Center
10:44PM 35.8533 -78.8389 63° Northeast 440 506 33,800 1,200 Climbing Washington Center
10:45PM 35.9089 -78.7103 62° Northeast 434 499 34,800 540 Climbing Washington Center
10:46PM 35.9597 -78.5994 60° Northeast 424 488 34,900  Climbing Washington Center
10:47PM 36.0211 -78.4761 58° Northeast 419 482 34,900  Level Washington Center
10:48PM 36.0806 -78.3497 60° Northeast 414 476 34,900  Level Washington Center
10:49PM 36.1397 -78.2258 59° Northeast 414 476 34,900  Level Washington Center
10:50PM 36.2028 -78.1042 57° Northeast 414 476 34,900  Level Washington Center
10:51PM 36.2594 -77.9800 60° Northeast 414 476 34,900  Level Washington Center
10:52PM 36.3183 -77.8553 60° Northeast 414 476 34,900  Level Washington Center
10:53PM 36.3789 -77.7333 58° Northeast 414 476 34,900  Level Washington Center
10:54PM 36.4397 -77.5981 61° Northeast 414 476 34,900  Level Washington Center
10:55PM 36.4961 -77.4731 61° Northeast 414 476 34,900  Level Washington Center
10:56PM 36.5497 -77.3631 59° Northeast 414 476 34,900  Level Washington Center
10:57PM 36.6078 -77.2403 59° Northeast 414 476 34,900  Level Washington Center
10:58PM 36.6658 -77.1144 60° Northeast 414 476 34,900  Level Washington Center
10:59PM 36.7319 -76.9967 55° Northeast 414 476 34,900  Level Washington Center
11:00PM 36.8228 -76.9125 37° Northeast 404 465 34,900  Level Washington Center
11:01PM 36.9153 -76.8311 35° Northeast 398 458 34,900  Level Washington Center
11:02PM 37.0058 -76.7467 37° Northeast 398 458 34,900  Level Washington Center
11:03PM 37.0964 -76.6622 37° Northeast 398 458 34,900  Level Washington Center
11:04PM 37.1994 -76.5722 35° Northeast 408 470 34,900  Level Washington Center
11:05PM 37.2897 -76.4900 36° Northeast 403 464 34,900  Level Washington Center
11:06PM 37.3819 -76.4072 35° Northeast 403 464 34,900  Level Washington Center
11:07PM 37.4722 -76.3244 36° Northeast 403 464 34,900  Level Washington Center
11:08PM 37.5625 -76.2414 36° Northeast 403 464 34,900  Level Washington Center
11:09PM 37.6336 -76.1714 38° Northeast 403 464 34,900  Level Washington Center
11:10PM 37.7342 -76.0856 34° Northeast 398 458 34,900  Level Washington Center
11:11PM 37.8306 -75.9914 38° Northeast 398 458 34,900  Level Washington Center
11:12PM 37.9183 -75.9050 38° Northeast 405 466 34,900  Level Washington Center
11:13PM 38.0081 -75.8236 36° Northeast 398 458 34,900  Level Washington Center
11:14PM 38.0981 -75.7369 37° Northeast 398 458 34,900  Level Washington Center
11:15PM 38.1856 -75.6550 36° Northeast 398 458 34,900  Level Washington Center
11:16PM 38.2733 -75.5706 37° Northeast 398 458 34,900  Level Washington Center
11:17PM 38.3608 -75.5044 31° Northeast 398 458 34,900  Level Washington Center
11:18PM 38.4608 -75.4564 21° North 385 443 34,900  Level Washington Center
11:19PM 38.5650 -75.4164 17° North 385 443 34,900  Level Washington Center
11:20PM 38.6692 -75.3683 20° North 385 443 34,900  Level Washington Center
11:21PM 38.7711 -75.3281 17° North 385 443 34,900  Level Washington Center
11:22PM 38.8753 -75.2850 18° North 385 443 34,900  Level Washington Center
11:23PM 38.9794 -75.2444 17° North 385 443 34,900  Level Washington Center
11:24PM 39.0836 -75.1958 20° North 385 443 34,900  Level Washington Center
11:25PM 39.1897 -75.1550 17° North 385 443 34,900  Level Washington Center
11:26PM 39.2936 -75.1089 19° North 385 443 34,900  Level Washington Center
11:27PM 39.3872 -75.0278 34° Northeast 385 443 34,900  Level Washington Center
11:28PM 39.4783 -74.9383 37° Northeast 401 461 34,900  Level Washington Center
11:29PM 39.5675 -74.8486 38° Northeast 406 467 34,900  Level Washington Center
11:30PM 39.6586 -74.7561 38° Northeast 406 467 34,900  Level Washington Center
11:31PM 39.8244 -74.5956 37° Northeast 415 478 34,900  Level New York Center
11:32PM 39.9169 -74.5058 37° Northeast 415 478 34,900  Level New York Center
11:33PM 40.0053 -74.4131 39° Northeast 410 472 34,900  Level New York Center
11:34PM 40.1069 -74.3642 20° North 392 451 34,900  Level New York Center
11:35PM 40.2303 -74.3433 North 392 451 34,900  Level New York Center
11:37PM 40.3883 -74.3092 North 413 475 34,900  Level Boston Center
11:38PM 40.4972 -74.2850 10° North 408 470 34,900  Level Boston Center
11:39PM 40.6081 -74.2608 North 402 463 34,900  Level Boston Center
11:40PM 40.7167 -74.2392 North 402 463 34,900  Level Boston Center
11:41PM 40.8381 -74.2178 North 397 457 34,900 -240 Level Boston Center
11:42PM 40.9467 -74.1961 North 392 451 34,500 -720 Descending Boston Center
11:43PM 41.0553 -74.1714 10° North 387 445 33,500 -1,140 Descending Boston Center
11:44PM 41.1642 -74.1522 North 393 452 32,300 -2,160 Descending Boston Center
11:45PM 41.2478 -74.1297 11° North 388 447 29,200 -3,240 Descending Boston Center
11:46PM 41.3711 -74.1025 North 394 453 25,900 -1,800 Descending Boston Center
11:47PM 41.4839 -74.0778 North 400 460 25,600 -1,200 Descending Boston Center
11:48PM 41.6117 -74.0506 North 411 473 23,600 -2,400 Descending Boston Center
11:49PM 41.7244 -74.0228 10° North 411 473 20,800 -3,000 Descending Boston Center
11:50PM 41.8269 -74.0003 North 393 452 17,700 -2,760 Descending Boston Center
11:51PM 41.9211 -73.9803 North 381 438 15,600 -2,520 Descending Boston Center
11:52PM 42.0108 -73.9572 11° North 359 413 13,200 -2,460 Descending Boston Center
11:53PM 42.1092 -73.9372 North 350 403 10,900 -1,200 Descending Boston Center
11:54PM 42.1844 -73.9167 11° North 288 331 10,900 -180 Level Boston Center
11:54PM 42.1969 -73.9114 17° North 321 369 10,700 -1,620 Descending Boston Center
11:55PM 42.2597 -73.8961 10° North 264 304 9,300 -1,800 Descending Boston Center
11:55PM 42.2786 -73.8908 12° North 278 320 8,900 -1,800 Descending Boston Center
11:56PM 42.3267 -73.8836 North 270 311 7,700 -1,500 Descending Boston Center
11:56PM 42.3456 -73.8756 17° North 266 306 7,400 -1,620 Descending Boston Center
11:57PM 42.4019 -73.8628 North 267 307 6,100 -1,740 Descending Boston Center
11:57PM 42.4250 -73.8578 North 266 306 5,700 -1,500 Descending Boston Center
11:58PM 42.4731 -73.8475 North 259 298 4,600 -1,500 Descending Boston Center
11:58PM 42.4875 -73.8422 15° North 256 295 4,200 -1,620 Descending Boston Center
11:59PM 42.5419 -73.8294 10° North 255 293 3,000 -1,320 Descending Boston Center
11:59PM 42.5628 -73.8242 11° North 256 295 2,900 -420 Descending Boston Center
12:00AM 42.6025 -73.8167 North 224 258 2,600 -600 Descending Boston Center
12:00AM 42.6192 -73.8114 13° North 233 268 2,300 -780 Descending Boston Center
12:01AM 42.6506 -73.8036 10° North 177 204 1,900 -720 Descending Boston Center